sensor_id;sensor_type;location;lat;lon;timestamp;P1;durP1;ratioP1;P2;durP2;ratioP2
65924;SDS011;66010;52.084;5.412;2023-07-13T00:00:38;7.95;;;2.17;;
65924;SDS011;66010;52.084;5.412;2023-07-13T00:03:04;13.07;;;1.80;;
65924;SDS011;66010;52.084;5.412;2023-07-13T00:05:31;6.97;;;2.05;;
65924;SDS011;66010;52.084;5.412;2023-07-13T00:07:58;7.40;;;1.83;;
65924;SDS011;66010;52.084;5.412;2023-07-13T00:10:25;7.50;;;1.90;;
65924;SDS011;66010;52.084;5.412;2023-07-13T00:12:52;8.85;;;1.80;;
65924;SDS011;66010;52.084;5.412;2023-07-13T00:15:24;9.18;;;1.60;;
65924;SDS011;66010;52.084;5.412;2023-07-13T00:17:53;10.43;;;2.28;;
65924;SDS011;66010;52.084;5.412;2023-07-13T00:20:23;7.00;;;1.67;;
65924;SDS011;66010;52.084;5.412;2023-07-13T00:22:51;7.45;;;1.52;;
65924;SDS011;66010;52.084;5.412;2023-07-13T00:25:20;6.53;;;1.70;;
65924;SDS011;66010;52.084;5.412;2023-07-13T00:30:15;7.10;;;1.80;;
65924;SDS011;66010;52.084;5.412;2023-07-13T00:32:42;5.28;;;1.45;;
65924;SDS011;66010;52.084;5.412;2023-07-13T00:35:08;7.43;;;1.70;;
65924;SDS011;66010;52.084;5.412;2023-07-13T00:37:35;5.55;;;1.58;;
65924;SDS011;66010;52.084;5.412;2023-07-13T00:42:29;5.90;;;1.60;;
65924;SDS011;66010;52.084;5.412;2023-07-13T00:47:28;5.18;;;1.65;;
65924;SDS011;66010;52.084;5.412;2023-07-13T00:49:55;5.65;;;1.50;;
65924;SDS011;66010;52.084;5.412;2023-07-13T00:52:22;6.45;;;1.50;;
65924;SDS011;66010;52.084;5.412;2023-07-13T00:54:49;7.82;;;1.63;;
65924;SDS011;66010;52.084;5.412;2023-07-13T00:57:17;7.13;;;1.65;;
65924;SDS011;66010;52.084;5.412;2023-07-13T00:59:50;5.55;;;1.50;;
65924;SDS011;66010;52.084;5.412;2023-07-13T01:02:17;7.15;;;1.88;;
65924;SDS011;66010;52.084;5.412;2023-07-13T01:04:44;6.55;;;1.63;;
65924;SDS011;66010;52.084;5.412;2023-07-13T01:07:11;4.15;;;1.48;;
65924;SDS011;66010;52.084;5.412;2023-07-13T01:09:38;6.03;;;1.80;;
65924;SDS011;66010;52.084;5.412;2023-07-13T01:12:04;7.00;;;1.77;;
65924;SDS011;66010;52.084;5.412;2023-07-13T01:14:31;4.88;;;1.48;;
65924;SDS011;66010;52.084;5.412;2023-07-13T01:16:57;5.70;;;1.60;;
65924;SDS011;66010;52.084;5.412;2023-07-13T01:19:37;7.72;;;1.80;;
65924;SDS011;66010;52.084;5.412;2023-07-13T01:22:06;7.28;;;1.73;;
65924;SDS011;66010;52.084;5.412;2023-07-13T01:24:38;7.82;;;1.58;;
65924;SDS011;66010;52.084;5.412;2023-07-13T01:27:06;7.85;;;1.60;;
65924;SDS011;66010;52.084;5.412;2023-07-13T01:29:33;7.85;;;1.60;;
65924;SDS011;66010;52.084;5.412;2023-07-13T01:32:00;7.75;;;1.40;;
65924;SDS011;66010;52.084;5.412;2023-07-13T01:34:27;6.95;;;1.80;;
65924;SDS011;66010;52.084;5.412;2023-07-13T01:36:53;4.90;;;1.67;;
65924;SDS011;66010;52.084;5.412;2023-07-13T01:39:21;7.95;;;1.52;;
65924;SDS011;66010;52.084;5.412;2023-07-13T01:41:48;4.93;;;1.50;;
65924;SDS011;66010;52.084;5.412;2023-07-13T01:44:14;4.55;;;1.20;;
65924;SDS011;66010;52.084;5.412;2023-07-13T01:46:41;4.00;;;1.58;;
65924;SDS011;66010;52.084;5.412;2023-07-13T01:49:07;3.75;;;1.20;;
65924;SDS011;66010;52.084;5.412;2023-07-13T01:51:34;7.63;;;1.60;;
65924;SDS011;66010;52.084;5.412;2023-07-13T01:54:00;6.25;;;1.70;;
65924;SDS011;66010;52.084;5.412;2023-07-13T01:56:27;4.97;;;1.52;;
65924;SDS011;66010;52.084;5.412;2023-07-13T01:58:53;7.50;;;1.50;;
65924;SDS011;66010;52.084;5.412;2023-07-13T02:01:20;7.18;;;1.50;;
65924;SDS011;66010;52.084;5.412;2023-07-13T02:03:46;6.55;;;1.42;;
65924;SDS011;66010;52.084;5.412;2023-07-13T02:06:13;5.32;;;1.60;;
65924;SDS011;66010;52.084;5.412;2023-07-13T02:08:40;4.47;;;1.60;;
65924;SDS011;66010;52.084;5.412;2023-07-13T02:11:07;6.15;;;1.70;;
65924;SDS011;66010;52.084;5.412;2023-07-13T02:13:34;8.05;;;1.70;;
65924;SDS011;66010;52.084;5.412;2023-07-13T02:16:00;6.90;;;1.90;;
65924;SDS011;66010;52.084;5.412;2023-07-13T02:18:27;8.90;;;1.75;;
65924;SDS011;66010;52.084;5.412;2023-07-13T02:20:53;6.70;;;2.00;;
65924;SDS011;66010;52.084;5.412;2023-07-13T02:23:20;4.40;;;1.48;;
65924;SDS011;66010;52.084;5.412;2023-07-13T02:25:46;7.60;;;1.80;;
65924;SDS011;66010;52.084;5.412;2023-07-13T02:28:14;5.90;;;1.70;;
65924;SDS011;66010;52.084;5.412;2023-07-13T02:30:41;8.23;;;1.73;;
65924;SDS011;66010;52.084;5.412;2023-07-13T02:33:07;5.18;;;1.60;;
65924;SDS011;66010;52.084;5.412;2023-07-13T02:35:34;6.43;;;1.58;;
65924;SDS011;66010;52.084;5.412;2023-07-13T02:38:00;4.07;;;1.45;;
65924;SDS011;66010;52.084;5.412;2023-07-13T02:40:28;9.55;;;1.83;;
65924;SDS011;66010;52.084;5.412;2023-07-13T02:42:55;8.85;;;1.90;;
65924;SDS011;66010;52.084;5.412;2023-07-13T02:45:21;7.28;;;1.70;;
65924;SDS011;66010;52.084;5.412;2023-07-13T02:47:48;9.63;;;1.80;;
65924;SDS011;66010;52.084;5.412;2023-07-13T02:50:14;7.13;;;1.80;;
65924;SDS011;66010;52.084;5.412;2023-07-13T02:52:41;6.38;;;1.65;;
65924;SDS011;66010;52.084;5.412;2023-07-13T02:55:09;5.65;;;1.67;;
65924;SDS011;66010;52.084;5.412;2023-07-13T02:57:39;6.72;;;1.50;;
65924;SDS011;66010;52.084;5.412;2023-07-13T03:00:07;6.55;;;1.60;;
65924;SDS011;66010;52.084;5.412;2023-07-13T03:02:34;6.68;;;1.58;;
65924;SDS011;66010;52.084;5.412;2023-07-13T03:05:01;6.35;;;1.88;;
65924;SDS011;66010;52.084;5.412;2023-07-13T03:07:29;7.82;;;1.60;;
65924;SDS011;66010;52.084;5.412;2023-07-13T03:09:56;7.60;;;1.63;;
65924;SDS011;66010;52.084;5.412;2023-07-13T03:12:26;7.13;;;1.80;;
65924;SDS011;66010;52.084;5.412;2023-07-13T03:14:53;8.93;;;1.80;;
65924;SDS011;66010;52.084;5.412;2023-07-13T03:17:20;6.60;;;1.60;;
65924;SDS011;66010;52.084;5.412;2023-07-13T03:19:46;7.55;;;1.52;;
65924;SDS011;66010;52.084;5.412;2023-07-13T03:22:17;7.97;;;1.95;;
65924;SDS011;66010;52.084;5.412;2023-07-13T03:24:44;6.63;;;1.80;;
65924;SDS011;66010;52.084;5.412;2023-07-13T03:27:11;8.30;;;1.92;;
65924;SDS011;66010;52.084;5.412;2023-07-13T03:29:41;6.10;;;1.88;;
65924;SDS011;66010;52.084;5.412;2023-07-13T03:32:07;9.13;;;2.05;;
65924;SDS011;66010;52.084;5.412;2023-07-13T03:34:34;7.57;;;2.08;;
65924;SDS011;66010;52.084;5.412;2023-07-13T03:37:01;9.02;;;1.88;;
65924;SDS011;66010;52.084;5.412;2023-07-13T03:39:28;8.10;;;2.15;;
65924;SDS011;66010;52.084;5.412;2023-07-13T03:41:57;8.25;;;1.73;;
65924;SDS011;66010;52.084;5.412;2023-07-13T03:44:23;7.82;;;1.92;;
65924;SDS011;66010;52.084;5.412;2023-07-13T03:46:53;7.22;;;1.90;;
65924;SDS011;66010;52.084;5.412;2023-07-13T03:49:20;5.70;;;1.67;;
65924;SDS011;66010;52.084;5.412;2023-07-13T03:51:47;6.78;;;2.00;;
65924;SDS011;66010;52.084;5.412;2023-07-13T03:54:16;6.35;;;1.50;;
65924;SDS011;66010;52.084;5.412;2023-07-13T03:56:43;9.82;;;2.10;;
65924;SDS011;66010;52.084;5.412;2023-07-13T03:59:11;9.27;;;1.85;;
65924;SDS011;66010;52.084;5.412;2023-07-13T04:01:38;10.23;;;2.17;;
65924;SDS011;66010;52.084;5.412;2023-07-13T04:04:04;7.28;;;1.92;;
65924;SDS011;66010;52.084;5.412;2023-07-13T04:06:31;7.90;;;2.13;;
65924;SDS011;66010;52.084;5.412;2023-07-13T04:08:59;8.32;;;1.95;;
65924;SDS011;66010;52.084;5.412;2023-07-13T04:11:27;6.55;;;2.00;;
65924;SDS011;66010;52.084;5.412;2023-07-13T04:13:54;8.60;;;2.10;;
65924;SDS011;66010;52.084;5.412;2023-07-13T04:16:22;7.57;;;2.00;;
65924;SDS011;66010;52.084;5.412;2023-07-13T04:18:51;6.35;;;1.83;;
65924;SDS011;66010;52.084;5.412;2023-07-13T04:21:21;8.13;;;2.00;;
65924;SDS011;66010;52.084;5.412;2023-07-13T04:23:48;7.82;;;2.10;;
65924;SDS011;66010;52.084;5.412;2023-07-13T04:26:15;8.57;;;1.98;;
65924;SDS011;66010;52.084;5.412;2023-07-13T04:28:41;8.02;;;2.00;;
65924;SDS011;66010;52.084;5.412;2023-07-13T04:31:08;9.55;;;2.20;;
65924;SDS011;66010;52.084;5.412;2023-07-13T04:33:35;8.32;;;2.10;;
65924;SDS011;66010;52.084;5.412;2023-07-13T04:36:01;8.88;;;2.28;;
65924;SDS011;66010;52.084;5.412;2023-07-13T04:38:29;9.90;;;2.10;;
65924;SDS011;66010;52.084;5.412;2023-07-13T04:40:56;10.80;;;2.28;;
65924;SDS011;66010;52.084;5.412;2023-07-13T04:45:50;8.35;;;1.90;;
65924;SDS011;66010;52.084;5.412;2023-07-13T04:48:18;7.55;;;2.17;;
65924;SDS011;66010;52.084;5.412;2023-07-13T04:50:45;7.00;;;2.08;;
65924;SDS011;66010;52.084;5.412;2023-07-13T04:53:12;7.72;;;2.00;;
65924;SDS011;66010;52.084;5.412;2023-07-13T04:55:39;8.82;;;2.22;;
65924;SDS011;66010;52.084;5.412;2023-07-13T04:58:07;10.15;;;2.47;;
65924;SDS011;66010;52.084;5.412;2023-07-13T05:00:33;8.63;;;2.20;;
65924;SDS011;66010;52.084;5.412;2023-07-13T05:03:00;9.18;;;2.13;;
65924;SDS011;66010;52.084;5.412;2023-07-13T05:05:27;9.25;;;2.20;;
65924;SDS011;66010;52.084;5.412;2023-07-13T05:07:53;8.95;;;2.35;;
65924;SDS011;66010;52.084;5.412;2023-07-13T05:10:20;9.52;;;2.15;;
65924;SDS011;66010;52.084;5.412;2023-07-13T05:12:47;8.77;;;2.22;;
65924;SDS011;66010;52.084;5.412;2023-07-13T05:15:13;11.93;;;2.20;;
65924;SDS011;66010;52.084;5.412;2023-07-13T05:17:40;9.27;;;2.20;;
65924;SDS011;66010;52.084;5.412;2023-07-13T05:20:07;9.35;;;2.50;;
65924;SDS011;66010;52.084;5.412;2023-07-13T05:25:02;8.35;;;2.47;;
65924;SDS011;66010;52.084;5.412;2023-07-13T05:27:29;8.38;;;2.47;;
65924;SDS011;66010;52.084;5.412;2023-07-13T05:29:56;8.90;;;2.40;;
65924;SDS011;66010;52.084;5.412;2023-07-13T05:32:22;9.73;;;2.60;;
65924;SDS011;66010;52.084;5.412;2023-07-13T05:34:49;9.90;;;2.75;;
65924;SDS011;66010;52.084;5.412;2023-07-13T05:37:15;10.45;;;2.58;;
65924;SDS011;66010;52.084;5.412;2023-07-13T05:39:42;12.02;;;2.80;;
65924;SDS011;66010;52.084;5.412;2023-07-13T05:42:08;9.82;;;2.85;;
65924;SDS011;66010;52.084;5.412;2023-07-13T05:44:35;12.25;;;3.03;;
65924;SDS011;66010;52.084;5.412;2023-07-13T05:47:01;10.25;;;3.20;;
65924;SDS011;66010;52.084;5.412;2023-07-13T05:49:29;12.60;;;3.30;;
65924;SDS011;66010;52.084;5.412;2023-07-13T05:51:56;9.60;;;3.00;;
65924;SDS011;66010;52.084;5.412;2023-07-13T05:54:24;12.68;;;3.13;;
65924;SDS011;66010;52.084;5.412;2023-07-13T05:56:51;9.10;;;2.67;;
65924;SDS011;66010;52.084;5.412;2023-07-13T05:59:17;12.45;;;3.00;;
65924;SDS011;66010;52.084;5.412;2023-07-13T06:01:44;11.13;;;2.72;;
65924;SDS011;66010;52.084;5.412;2023-07-13T06:04:11;11.20;;;2.90;;
65924;SDS011;66010;52.084;5.412;2023-07-13T06:06:37;11.82;;;3.47;;
65924;SDS011;66010;52.084;5.412;2023-07-13T06:09:04;13.15;;;3.97;;
65924;SDS011;66010;52.084;5.412;2023-07-13T06:11:30;10.57;;;2.80;;
65924;SDS011;66010;52.084;5.412;2023-07-13T06:13:57;11.23;;;3.63;;
65924;SDS011;66010;52.084;5.412;2023-07-13T06:16:23;12.18;;;3.00;;
65924;SDS011;66010;52.084;5.412;2023-07-13T06:18:50;12.45;;;3.28;;
65924;SDS011;66010;52.084;5.412;2023-07-13T06:21:17;13.90;;;4.20;;
65924;SDS011;66010;52.084;5.412;2023-07-13T06:23:45;16.88;;;4.78;;
65924;SDS011;66010;52.084;5.412;2023-07-13T06:26:14;12.93;;;3.75;;
65924;SDS011;66010;52.084;5.412;2023-07-13T06:28:40;11.82;;;3.63;;
65924;SDS011;66010;52.084;5.412;2023-07-13T06:31:07;15.95;;;4.50;;
65924;SDS011;66010;52.084;5.412;2023-07-13T06:33:34;14.15;;;3.83;;
65924;SDS011;66010;52.084;5.412;2023-07-13T06:36:01;11.70;;;3.58;;
65924;SDS011;66010;52.084;5.412;2023-07-13T06:38:28;11.02;;;3.92;;
65924;SDS011;66010;52.084;5.412;2023-07-13T06:40:54;9.95;;;3.05;;
65924;SDS011;66010;52.084;5.412;2023-07-13T06:43:21;11.13;;;3.30;;
65924;SDS011;66010;52.084;5.412;2023-07-13T06:45:48;11.85;;;3.58;;
65924;SDS011;66010;52.084;5.412;2023-07-13T06:48:16;11.70;;;3.75;;
65924;SDS011;66010;52.084;5.412;2023-07-13T06:50:44;13.00;;;4.00;;
65924;SDS011;66010;52.084;5.412;2023-07-13T06:53:11;15.05;;;4.72;;
65924;SDS011;66010;52.084;5.412;2023-07-13T06:55:38;10.98;;;4.22;;
65924;SDS011;66010;52.084;5.412;2023-07-13T06:58:05;11.82;;;4.00;;
65924;SDS011;66010;52.084;5.412;2023-07-13T07:00:32;13.25;;;4.15;;
65924;SDS011;66010;52.084;5.412;2023-07-13T07:02:59;11.68;;;4.30;;
65924;SDS011;66010;52.084;5.412;2023-07-13T07:05:25;15.48;;;4.60;;
65924;SDS011;66010;52.084;5.412;2023-07-13T07:07:54;9.77;;;4.45;;
65924;SDS011;66010;52.084;5.412;2023-07-13T07:10:21;14.40;;;4.93;;
65924;SDS011;66010;52.084;5.412;2023-07-13T07:12:48;10.75;;;4.53;;
65924;SDS011;66010;52.084;5.412;2023-07-13T07:15:14;11.77;;;4.32;;
65924;SDS011;66010;52.084;5.412;2023-07-13T07:17:48;10.45;;;4.60;;
65924;SDS011;66010;52.084;5.412;2023-07-13T07:20:15;12.48;;;4.20;;
65924;SDS011;66010;52.084;5.412;2023-07-13T07:22:42;13.05;;;4.78;;
65924;SDS011;66010;52.084;5.412;2023-07-13T07:25:09;11.52;;;4.40;;
65924;SDS011;66010;52.084;5.412;2023-07-13T07:27:35;10.70;;;4.85;;
65924;SDS011;66010;52.084;5.412;2023-07-13T07:30:05;15.00;;;4.97;;
65924;SDS011;66010;52.084;5.412;2023-07-13T07:32:34;12.23;;;4.90;;
65924;SDS011;66010;52.084;5.412;2023-07-13T07:35:04;13.13;;;5.35;;
65924;SDS011;66010;52.084;5.412;2023-07-13T07:37:31;12.50;;;4.80;;
65924;SDS011;66010;52.084;5.412;2023-07-13T07:40:00;13.95;;;4.72;;
65924;SDS011;66010;52.084;5.412;2023-07-13T07:42:30;12.15;;;4.50;;
65924;SDS011;66010;52.084;5.412;2023-07-13T07:44:56;13.65;;;6.10;;
65924;SDS011;66010;52.084;5.412;2023-07-13T07:47:23;14.00;;;5.57;;
65924;SDS011;66010;52.084;5.412;2023-07-13T07:52:16;11.13;;;4.90;;
65924;SDS011;66010;52.084;5.412;2023-07-13T07:54:43;11.75;;;4.80;;
65924;SDS011;66010;52.084;5.412;2023-07-13T07:57:13;10.65;;;4.53;;
65924;SDS011;66010;52.084;5.412;2023-07-13T07:59:42;12.77;;;5.18;;
65924;SDS011;66010;52.084;5.412;2023-07-13T08:02:11;14.70;;;5.28;;
65924;SDS011;66010;52.084;5.412;2023-07-13T08:04:58;14.30;;;5.72;;
65924;SDS011;66010;52.084;5.412;2023-07-13T08:07:28;13.68;;;5.10;;
65924;SDS011;66010;52.084;5.412;2023-07-13T08:09:56;12.90;;;5.18;;
65924;SDS011;66010;52.084;5.412;2023-07-13T08:12:22;13.90;;;5.57;;
65924;SDS011;66010;52.084;5.412;2023-07-13T08:14:52;15.05;;;5.28;;
65924;SDS011;66010;52.084;5.412;2023-07-13T08:17:24;14.85;;;5.93;;
65924;SDS011;66010;52.084;5.412;2023-07-13T08:19:51;13.30;;;5.85;;
65924;SDS011;66010;52.084;5.412;2023-07-13T08:22:17;13.40;;;5.10;;
65924;SDS011;66010;52.084;5.412;2023-07-13T08:24:44;14.40;;;5.40;;
65924;SDS011;66010;52.084;5.412;2023-07-13T08:27:11;11.45;;;4.68;;
65924;SDS011;66010;52.084;5.412;2023-07-13T08:29:38;13.80;;;6.30;;
65924;SDS011;66010;52.084;5.412;2023-07-13T08:32:06;14.18;;;6.30;;
65924;SDS011;66010;52.084;5.412;2023-07-13T08:34:36;12.85;;;5.10;;
65924;SDS011;66010;52.084;5.412;2023-07-13T08:37:02;12.93;;;4.85;;
65924;SDS011;66010;52.084;5.412;2023-07-13T08:39:32;11.80;;;4.22;;
65924;SDS011;66010;52.084;5.412;2023-07-13T08:42:05;9.18;;;3.30;;
65924;SDS011;66010;52.084;5.412;2023-07-13T08:44:40;8.60;;;3.33;;
65924;SDS011;66010;52.084;5.412;2023-07-13T08:47:10;8.48;;;3.30;;
65924;SDS011;66010;52.084;5.412;2023-07-13T08:49:38;8.07;;;3.05;;
65924;SDS011;66010;52.084;5.412;2023-07-13T08:52:07;8.35;;;2.80;;
65924;SDS011;66010;52.084;5.412;2023-07-13T08:54:36;9.40;;;3.13;;
65924;SDS011;66010;52.084;5.412;2023-07-13T08:57:18;11.38;;;3.03;;
65924;SDS011;66010;52.084;5.412;2023-07-13T08:59:46;7.63;;;3.00;;
65924;SDS011;66010;52.084;5.412;2023-07-13T09:02:21;9.65;;;2.78;;
65924;SDS011;66010;52.084;5.412;2023-07-13T09:04:50;9.48;;;2.85;;
65924;SDS011;66010;52.084;5.412;2023-07-13T09:15:14;7.40;;;2.80;;
65924;SDS011;66010;52.084;5.412;2023-07-13T09:17:51;8.10;;;2.67;;
65924;SDS011;66010;52.084;5.412;2023-07-13T09:20:27;8.27;;;2.88;;
65924;SDS011;66010;52.084;5.412;2023-07-13T09:22:55;7.35;;;2.88;;
65924;SDS011;66010;52.084;5.412;2023-07-13T09:27:48;8.05;;;2.40;;
65924;SDS011;66010;52.084;5.412;2023-07-13T09:32:44;7.88;;;2.90;;
65924;SDS011;66010;52.084;5.412;2023-07-13T09:35:12;8.88;;;2.80;;
65924;SDS011;66010;52.084;5.412;2023-07-13T09:37:40;9.77;;;2.85;;
65924;SDS011;66010;52.084;5.412;2023-07-13T09:40:11;6.78;;;2.53;;
65924;SDS011;66010;52.084;5.412;2023-07-13T09:42:41;6.38;;;2.47;;
65924;SDS011;66010;52.084;5.412;2023-07-13T09:45:08;7.75;;;2.70;;
65924;SDS011;66010;52.084;5.412;2023-07-13T09:47:39;7.63;;;2.20;;
65924;SDS011;66010;52.084;5.412;2023-07-13T09:50:08;7.95;;;2.53;;
65924;SDS011;66010;52.084;5.412;2023-07-13T09:52:42;9.32;;;2.58;;
65924;SDS011;66010;52.084;5.412;2023-07-13T09:57:56;8.48;;;2.60;;
65924;SDS011;66010;52.084;5.412;2023-07-13T10:00:29;6.82;;;2.38;;
65924;SDS011;66010;52.084;5.412;2023-07-13T10:03:03;8.18;;;2.50;;
65924;SDS011;66010;52.084;5.412;2023-07-13T10:05:40;6.85;;;2.38;;
65924;SDS011;66010;52.084;5.412;2023-07-13T10:08:14;7.20;;;2.42;;
65924;SDS011;66010;52.084;5.412;2023-07-13T10:10:41;7.00;;;2.20;;
65924;SDS011;66010;52.084;5.412;2023-07-13T10:13:21;7.07;;;2.30;;
65924;SDS011;66010;52.084;5.412;2023-07-13T10:15:50;6.68;;;2.28;;
65924;SDS011;66010;52.084;5.412;2023-07-13T10:18:17;7.95;;;2.50;;
65924;SDS011;66010;52.084;5.412;2023-07-13T10:20:44;7.70;;;2.50;;
65924;SDS011;66010;52.084;5.412;2023-07-13T10:23:13;7.10;;;2.45;;
65924;SDS011;66010;52.084;5.412;2023-07-13T10:25:42;6.03;;;2.15;;
65924;SDS011;66010;52.084;5.412;2023-07-13T10:30:38;7.13;;;2.25;;
65924;SDS011;66010;52.084;5.412;2023-07-13T10:33:10;5.45;;;2.38;;
65924;SDS011;66010;52.084;5.412;2023-07-13T10:35:37;9.05;;;2.30;;
65924;SDS011;66010;52.084;5.412;2023-07-13T10:38:05;5.55;;;1.92;;
65924;SDS011;66010;52.084;5.412;2023-07-13T10:40:37;11.00;;;2.85;;
65924;SDS011;66010;52.084;5.412;2023-07-13T10:43:06;5.22;;;2.22;;
65924;SDS011;66010;52.084;5.412;2023-07-13T10:45:39;6.57;;;2.30;;
65924;SDS011;66010;52.084;5.412;2023-07-13T10:48:06;9.13;;;2.30;;
65924;SDS011;66010;52.084;5.412;2023-07-13T10:50:39;8.63;;;2.63;;
65924;SDS011;66010;52.084;5.412;2023-07-13T10:58:19;6.28;;;2.25;;
65924;SDS011;66010;52.084;5.412;2023-07-13T11:00:47;7.05;;;1.90;;
65924;SDS011;66010;52.084;5.412;2023-07-13T11:03:17;6.93;;;2.00;;
65924;SDS011;66010;52.084;5.412;2023-07-13T11:05:47;5.95;;;2.17;;
65924;SDS011;66010;52.084;5.412;2023-07-13T11:08:32;6.03;;;2.00;;
65924;SDS011;66010;52.084;5.412;2023-07-13T11:10:59;5.60;;;2.00;;
65924;SDS011;66010;52.084;5.412;2023-07-13T11:13:36;7.55;;;2.22;;
65924;SDS011;66010;52.084;5.412;2023-07-13T11:16:13;5.70;;;2.10;;
65924;SDS011;66010;52.084;5.412;2023-07-13T11:18:40;4.65;;;1.80;;
65924;SDS011;66010;52.084;5.412;2023-07-13T11:21:29;5.45;;;2.10;;
65924;SDS011;66010;52.084;5.412;2023-07-13T11:24:03;5.75;;;2.10;;
65924;SDS011;66010;52.084;5.412;2023-07-13T11:29:40;7.47;;;2.33;;
65924;SDS011;66010;52.084;5.412;2023-07-13T11:32:01;6.78;;;2.40;;
65924;SDS011;66010;52.084;5.412;2023-07-13T11:34:36;5.63;;;1.90;;
65924;SDS011;66010;52.084;5.412;2023-07-13T11:37:08;5.25;;;2.05;;
65924;SDS011;66010;52.084;5.412;2023-07-13T11:39:41;7.15;;;2.35;;
65924;SDS011;66010;52.084;5.412;2023-07-13T11:42:13;6.40;;;2.13;;
65924;SDS011;66010;52.084;5.412;2023-07-13T11:44:43;6.05;;;2.15;;
65924;SDS011;66010;52.084;5.412;2023-07-13T11:47:30;4.75;;;2.03;;
65924;SDS011;66010;52.084;5.412;2023-07-13T11:50:01;7.22;;;2.40;;
65924;SDS011;66010;52.084;5.412;2023-07-13T11:52:32;7.82;;;2.15;;
65924;SDS011;66010;52.084;5.412;2023-07-13T11:55:00;6.63;;;2.50;;
65924;SDS011;66010;52.084;5.412;2023-07-13T11:57:31;8.25;;;2.45;;
65924;SDS011;66010;52.084;5.412;2023-07-13T12:00:22;7.15;;;2.53;;
65924;SDS011;66010;52.084;5.412;2023-07-13T12:02:51;7.07;;;2.40;;
65924;SDS011;66010;52.084;5.412;2023-07-13T12:05:19;6.30;;;2.42;;
65924;SDS011;66010;52.084;5.412;2023-07-13T12:07:47;6.72;;;2.38;;
65924;SDS011;66010;52.084;5.412;2023-07-13T12:12:48;7.72;;;2.60;;
65924;SDS011;66010;52.084;5.412;2023-07-13T12:15:14;6.30;;;2.53;;
65924;SDS011;66010;52.084;5.412;2023-07-13T12:17:41;6.40;;;2.38;;
65924;SDS011;66010;52.084;5.412;2023-07-13T12:20:24;6.35;;;2.40;;
65924;SDS011;66010;52.084;5.412;2023-07-13T12:22:52;6.35;;;2.28;;
65924;SDS011;66010;52.084;5.412;2023-07-13T12:25:20;6.95;;;2.40;;
65924;SDS011;66010;52.084;5.412;2023-07-13T12:27:48;7.30;;;2.40;;
65924;SDS011;66010;52.084;5.412;2023-07-13T12:30:26;7.20;;;2.67;;
65924;SDS011;66010;52.084;5.412;2023-07-13T12:33:05;4.72;;;2.15;;
65924;SDS011;66010;52.084;5.412;2023-07-13T12:35:39;6.85;;;2.42;;
65924;SDS011;66010;52.084;5.412;2023-07-13T12:38:08;6.43;;;2.40;;
65924;SDS011;66010;52.084;5.412;2023-07-13T12:40:34;7.00;;;2.40;;
65924;SDS011;66010;52.084;5.412;2023-07-13T12:43:03;6.22;;;2.20;;
65924;SDS011;66010;52.084;5.412;2023-07-13T12:45:33;6.60;;;2.50;;
65924;SDS011;66010;52.084;5.412;2023-07-13T12:48:03;5.68;;;2.10;;
65924;SDS011;66010;52.084;5.412;2023-07-13T12:50:38;4.82;;;1.92;;
65924;SDS011;66010;52.084;5.412;2023-07-13T12:53:14;5.57;;;2.20;;
65924;SDS011;66010;52.084;5.412;2023-07-13T12:55:41;5.85;;;2.22;;
65924;SDS011;66010;52.084;5.412;2023-07-13T12:58:10;5.85;;;2.38;;
65924;SDS011;66010;52.084;5.412;2023-07-13T13:00:41;6.50;;;2.30;;
65924;SDS011;66010;52.084;5.412;2023-07-13T13:03:13;5.65;;;2.30;;
65924;SDS011;66010;52.084;5.412;2023-07-13T13:05:58;6.00;;;2.50;;
65924;SDS011;66010;52.084;5.412;2023-07-13T13:08:26;6.93;;;2.50;;
65924;SDS011;66010;52.084;5.412;2023-07-13T13:13:19;10.93;;;2.15;;
65924;SDS011;66010;52.084;5.412;2023-07-13T13:15:46;9.82;;;2.35;;
65924;SDS011;66010;52.084;5.412;2023-07-13T13:18:20;13.02;;;2.40;;
65924;SDS011;66010;52.084;5.412;2023-07-13T13:20:48;6.43;;;2.30;;
65924;SDS011;66010;52.084;5.412;2023-07-13T13:23:16;9.85;;;2.45;;
65924;SDS011;66010;52.084;5.412;2023-07-13T13:25:45;7.38;;;2.00;;
65924;SDS011;66010;52.084;5.412;2023-07-13T13:28:13;6.28;;;2.05;;
65924;SDS011;66010;52.084;5.412;2023-07-13T13:30:40;5.75;;;2.20;;
65924;SDS011;66010;52.084;5.412;2023-07-13T13:33:09;6.13;;;2.40;;
65924;SDS011;66010;52.084;5.412;2023-07-13T13:35:36;6.70;;;2.20;;
65924;SDS011;66010;52.084;5.412;2023-07-13T13:40:59;6.18;;;2.10;;
65924;SDS011;66010;52.084;5.412;2023-07-13T13:43:26;4.70;;;2.20;;
65924;SDS011;66010;52.084;5.412;2023-07-13T13:45:54;4.93;;;2.30;;
65924;SDS011;66010;52.084;5.412;2023-07-13T13:48:26;8.00;;;2.50;;
65924;SDS011;66010;52.084;5.412;2023-07-13T13:50:56;6.20;;;2.20;;
65924;SDS011;66010;52.084;5.412;2023-07-13T13:53:23;5.35;;;2.33;;
65924;SDS011;66010;52.084;5.412;2023-07-13T13:55:50;6.75;;;2.30;;
65924;SDS011;66010;52.084;5.412;2023-07-13T13:58:18;6.40;;;2.20;;
65924;SDS011;66010;52.084;5.412;2023-07-13T14:00:45;5.43;;;2.30;;
65924;SDS011;66010;52.084;5.412;2023-07-13T14:03:15;6.35;;;2.33;;
65924;SDS011;66010;52.084;5.412;2023-07-13T14:05:43;6.78;;;2.30;;
65924;SDS011;66010;52.084;5.412;2023-07-13T14:08:17;5.60;;;2.30;;
65924;SDS011;66010;52.084;5.412;2023-07-13T14:10:44;5.22;;;2.28;;
65924;SDS011;66010;52.084;5.412;2023-07-13T14:15:37;5.30;;;2.30;;
65924;SDS011;66010;52.084;5.412;2023-07-13T14:18:04;5.90;;;2.30;;
65924;SDS011;66010;52.084;5.412;2023-07-13T14:20:30;5.90;;;2.20;;
65924;SDS011;66010;52.084;5.412;2023-07-13T14:22:57;7.82;;;2.50;;
65924;SDS011;66010;52.084;5.412;2023-07-13T14:25:24;7.45;;;2.45;;
65924;SDS011;66010;52.084;5.412;2023-07-13T14:27:53;7.95;;;2.58;;
65924;SDS011;66010;52.084;5.412;2023-07-13T14:30:23;5.40;;;2.22;;
65924;SDS011;66010;52.084;5.412;2023-07-13T14:32:49;7.07;;;2.42;;
65924;SDS011;66010;52.084;5.412;2023-07-13T14:35:17;7.07;;;2.40;;
65924;SDS011;66010;52.084;5.412;2023-07-13T14:37:44;6.70;;;2.50;;
65924;SDS011;66010;52.084;5.412;2023-07-13T14:42:40;7.78;;;2.85;;
65924;SDS011;66010;52.084;5.412;2023-07-13T14:45:13;8.00;;;2.63;;
65924;SDS011;66010;52.084;5.412;2023-07-13T14:47:40;5.93;;;2.42;;
65924;SDS011;66010;52.084;5.412;2023-07-13T14:50:12;6.50;;;2.40;;
65924;SDS011;66010;52.084;5.412;2023-07-13T14:52:39;6.68;;;2.60;;
65924;SDS011;66010;52.084;5.412;2023-07-13T14:55:12;6.03;;;2.58;;
65924;SDS011;66010;52.084;5.412;2023-07-13T15:00:26;7.20;;;2.50;;
65924;SDS011;66010;52.084;5.412;2023-07-13T15:02:54;8.27;;;2.40;;
65924;SDS011;66010;52.084;5.412;2023-07-13T15:05:23;6.30;;;2.50;;
65924;SDS011;66010;52.084;5.412;2023-07-13T15:07:51;7.00;;;2.40;;
65924;SDS011;66010;52.084;5.412;2023-07-13T15:10:20;10.85;;;2.80;;
65924;SDS011;66010;52.084;5.412;2023-07-13T15:12:47;12.48;;;2.60;;
65924;SDS011;66010;52.084;5.412;2023-07-13T15:15:13;7.90;;;2.60;;
65924;SDS011;66010;52.084;5.412;2023-07-13T15:17:44;8.15;;;2.50;;
65924;SDS011;66010;52.084;5.412;2023-07-13T15:20:15;7.55;;;2.40;;
65924;SDS011;66010;52.084;5.412;2023-07-13T15:22:43;6.93;;;2.30;;
65924;SDS011;66010;52.084;5.412;2023-07-13T15:25:15;7.72;;;2.50;;
65924;SDS011;66010;52.084;5.412;2023-07-13T15:27:42;8.60;;;2.90;;
65924;SDS011;66010;52.084;5.412;2023-07-13T15:30:09;7.25;;;2.47;;
65924;SDS011;66010;52.084;5.412;2023-07-13T15:32:37;8.48;;;2.58;;
65924;SDS011;66010;52.084;5.412;2023-07-13T15:35:04;8.32;;;2.40;;
65924;SDS011;66010;52.084;5.412;2023-07-13T15:37:31;6.85;;;2.40;;
65924;SDS011;66010;52.084;5.412;2023-07-13T15:39:57;6.85;;;2.58;;
65924;SDS011;66010;52.084;5.412;2023-07-13T15:42:24;7.25;;;2.30;;
65924;SDS011;66010;52.084;5.412;2023-07-13T15:44:50;7.32;;;2.47;;
65924;SDS011;66010;52.084;5.412;2023-07-13T15:47:17;9.55;;;2.70;;
65924;SDS011;66010;52.084;5.412;2023-07-13T15:49:44;7.93;;;2.40;;